Time;durP1;ratioP1;P1;durP2;ratioP2;P2;SDS_P1;SDS_P2;PMS_P1;PMS_P2;Temp;Humidity;BMP_temperature;BMP_pressure;BME280_temperature;BME280_humidity;BME280_pressure;Samples;Min_cycle;Max_cycle;Signal;HPM_P1;HPM_P2
2021/09/14 00:02:11;;;;;;;7.40;5.90;;;21.10;99.90;;;;;;5026624;28;22082;-68
2021/09/14 00:04:36;;;;;;;11.00;6.70;;;21.00;99.90;;;;;;5023947;28;20212;-68
2021/09/14 00:07:03;;;;;;;6.60;6.00;;;21.00;99.90;;;;;;5025055;28;20271;-68
2021/09/14 00:09:29;;;;;;;6.93;6.30;;;20.90;99.90;;;;;;5023702;28;20221;-68
2021/09/14 00:11:54;;;;;;;7.43;6.70;;;20.80;99.90;;;;;;5022569;28;20512;-69
2021/09/14 00:14:20;;;;;;;9.43;6.53;;;20.80;99.90;;;;;;5021552;28;20204;-69
2021/09/14 00:16:45;;;;;;;7.40;6.60;;;20.80;99.90;;;;;;5023448;28;20604;-69
2021/09/14 00:19:11;;;;;;;6.97;6.20;;;20.80;99.90;;;;;;5021029;28;20219;-69
2021/09/14 00:21:37;;;;;;;7.20;6.60;;;20.80;99.90;;;;;;5026602;28;20199;-68
2021/09/14 00:24:02;;;;;;;8.53;6.50;;;20.80;99.90;;;;;;5022929;28;20213;-69
2021/09/14 00:26:28;;;;;;;6.93;6.33;;;20.80;99.90;;;;;;5023879;28;20299;-70
2021/09/14 00:28:54;;;;;;;9.40;6.43;;;20.80;99.90;;;;;;5022653;28;20197;-69
2021/09/14 00:31:19;;;;;;;7.80;7.10;;;20.80;99.90;;;;;;5007126;28;20283;-68
2021/09/14 00:33:45;;;;;;;10.77;7.40;;;20.80;99.90;;;;;;5023336;28;20176;-68
2021/09/14 00:36:10;;;;;;;7.47;6.57;;;20.80;99.90;;;;;;5025521;28;20204;-69
2021/09/14 00:38:36;;;;;;;7.70;6.00;;;20.70;99.90;;;;;;5028640;28;20270;-69
2021/09/14 00:41:02;;;;;;;7.57;6.80;;;20.70;99.90;;;;;;5029642;28;20212;-69
2021/09/14 00:43:27;;;;;;;6.83;6.13;;;20.80;99.90;;;;;;5027932;28;20183;-68
2021/09/14 00:45:53;;;;;;;7.83;7.00;;;20.80;99.90;;;;;;5028188;28;20299;-61
2021/09/14 00:48:18;;;;;;;7.20;6.50;;;20.80;99.90;;;;;;5029757;28;20177;-63
2021/09/14 00:50:45;;;;;;;7.27;6.57;;;20.80;99.90;;;;;;5029043;28;20188;-62
2021/09/14 00:53:10;;;;;;;8.17;6.30;;;20.70;99.90;;;;;;5013525;28;20192;-62
2021/09/14 00:55:36;;;;;;;7.83;6.63;;;20.60;99.90;;;;;;5026243;28;20431;-63
2021/09/14 00:58:02;;;;;;;7.50;6.83;;;20.70;99.90;;;;;;5029413;28;20303;-61
2021/09/14 01:00:28;;;;;;;8.03;7.00;;;20.60;99.90;;;;;;5027295;28;20196;-62
2021/09/14 01:02:54;;;;;;;8.07;6.77;;;20.50;99.90;;;;;;5024878;28;20203;-69
2021/09/14 01:05:20;;;;;;;7.33;6.63;;;20.50;99.90;;;;;;5025939;28;20615;-68
2021/09/14 01:07:46;;;;;;;6.63;6.07;;;20.50;99.90;;;;;;5022313;28;20467;-68
2021/09/14 01:10:13;;;;;;;7.20;6.50;;;20.50;99.90;;;;;;5026533;28;20213;-62
2021/09/14 01:12:39;;;;;;;6.53;5.93;;;20.50;99.90;;;;;;5030688;28;20462;-62
2021/09/14 01:15:06;;;;;;;7.90;6.93;;;20.50;99.90;;;;;;5025431;28;20686;-62
2021/09/14 01:17:32;;;;;;;7.77;6.50;;;20.20;99.90;;;;;;5024123;28;20465;-62
2021/09/14 01:19:57;;;;;;;7.90;7.20;;;20.30;99.90;;;;;;5031077;28;20496;-61
2021/09/14 01:22:33;;;;;;;7.10;6.40;;;20.00;99.90;;;;;;5024065;28;20204;-61
2021/09/14 01:25:00;;;;;;;7.97;7.20;;;20.10;99.90;;;;;;5024808;28;20253;-68
2021/09/14 01:27:26;;;;;;;10.13;8.00;;;20.00;99.90;;;;;;5028729;28;20454;-69
2021/09/14 01:32:35;;;;;;;6.80;6.20;;;20.10;99.90;;;;;;5028507;28;20196;-69
2021/09/14 01:35:10;;;;;;;8.37;7.43;;;20.10;99.90;;;;;;5028146;28;20472;-68
2021/09/14 01:37:38;;;;;;;7.47;6.77;;;20.10;99.90;;;;;;5024664;28;20219;-69
2021/09/14 01:40:05;;;;;;;8.00;6.90;;;19.90;99.90;;;;;;5028544;28;20837;-69
2021/09/14 01:42:31;;;;;;;7.93;7.23;;;19.90;99.90;;;;;;5025935;28;20454;-68
2021/09/14 01:44:56;;;;;;;7.70;6.90;;;19.90;99.90;;;;;;5026160;28;20980;-69
2021/09/14 01:47:22;;;;;;;9.90;6.87;;;20.00;99.90;;;;;;5026401;28;20536;-69
2021/09/14 01:49:48;;;;;;;9.43;7.27;;;20.00;99.90;;;;;;5026573;28;20663;-69
2021/09/14 01:52:14;;;;;;;8.00;6.90;;;19.90;99.90;;;;;;5027918;28;20188;-69
2021/09/14 01:54:40;;;;;;;6.47;5.87;;;20.00;99.90;;;;;;5026772;28;20192;-68
2021/09/14 01:57:05;;;;;;;6.70;6.10;;;19.90;99.90;;;;;;5021673;28;21008;-68
2021/09/14 01:59:32;;;;;;;7.83;7.10;;;20.00;99.90;;;;;;5010872;28;21053;-68
2021/09/14 02:02:12;;;;;;;6.83;6.23;;;19.80;99.90;;;;;;5028434;28;20442;-64
2021/09/14 02:04:53;;;;;;;8.00;7.30;;;19.80;99.90;;;;;;5026799;28;20868;-65
2021/09/14 02:24:00;;;;;;;8.33;7.50;;;19.60;99.90;;;;;;5025241;28;21001;-65
2021/09/14 03:00:46;;;;;;;9.50;7.53;;;19.60;99.90;;;;;;5026232;28;20450;-68
2021/09/14 03:03:11;;;;;;;8.00;7.20;;;19.70;99.90;;;;;;5023698;28;20439;-68
2021/09/14 03:05:37;;;;;;;7.23;6.60;;;19.80;99.90;;;;;;5027174;28;20466;-69
2021/09/14 03:08:02;;;;;;;10.40;7.27;;;19.80;99.90;;;;;;5022664;28;20208;-62
2021/09/14 03:10:28;;;;;;;7.63;6.83;;;19.80;99.90;;;;;;5026526;28;20193;-62
2021/09/14 03:12:54;;;;;;;8.40;7.60;;;19.80;99.90;;;;;;5025688;28;20238;-61
2021/09/14 03:15:19;;;;;;;9.17;8.07;;;19.70;99.90;;;;;;5023545;28;20212;-62
2021/09/14 03:17:45;;;;;;;7.43;6.63;;;19.70;99.90;;;;;;5007479;28;20227;-63
2021/09/14 03:20:11;;;;;;;10.10;7.40;;;19.60;99.90;;;;;;5024499;28;20188;-62
2021/09/14 03:22:37;;;;;;;13.43;8.33;;;19.60;99.90;;;;;;5022661;28;20200;-62
2021/09/14 03:25:03;;;;;;;8.30;7.60;;;19.60;99.90;;;;;;5024037;28;20479;-61
2021/09/14 03:27:28;;;;;;;8.53;7.63;;;19.60;99.90;;;;;;5027339;28;20216;-63
2021/09/14 03:29:54;;;;;;;10.17;7.30;;;19.30;99.90;;;;;;5024362;28;20435;-62
2021/09/14 03:32:20;;;;;;;8.33;6.70;;;19.10;99.90;;;;;;5027862;28;20196;-62
2021/09/14 03:34:45;;;;;;;8.33;6.77;;;18.90;99.90;;;;;;5020487;28;20212;-69
2021/09/14 03:37:11;;;;;;;7.47;6.63;;;18.70;99.90;;;;;;5024120;28;20228;-68
2021/09/14 03:39:36;;;;;;;16.90;6.53;;;18.60;99.90;;;;;;5024143;28;20197;-68
2021/09/14 03:42:02;;;;;;;7.20;5.93;;;18.50;99.90;;;;;;5022742;28;20318;-68
2021/09/14 03:44:28;;;;;;;7.23;6.50;;;18.40;99.90;;;;;;5022027;28;20200;-69
2021/09/14 03:46:53;;;;;;;7.80;5.80;;;18.40;99.90;;;;;;5023691;28;20571;-67
2021/09/14 03:49:19;;;;;;;7.60;6.40;;;18.30;99.90;;;;;;5022676;28;20634;-70
2021/09/14 03:51:44;;;;;;;6.80;6.17;;;18.40;99.90;;;;;;5024784;28;20192;-64
2021/09/14 03:54:10;;;;;;;7.30;6.60;;;18.50;99.90;;;;;;5023347;28;20228;-68
2021/09/14 03:56:36;;;;;;;6.90;6.23;;;18.60;99.90;;;;;;5025544;28;20254;-68
2021/09/14 03:59:02;;;;;;;7.33;6.57;;;18.60;99.90;;;;;;5023960;28;20191;-61
2021/09/14 04:01:27;;;;;;;7.70;7.00;;;18.60;99.90;;;;;;5023906;28;20734;-62
2021/09/14 04:03:59;;;;;;;7.77;6.87;;;18.40;99.90;;;;;;5026565;28;20299;-62
2021/09/14 04:06:52;;;;;;;8.97;7.43;;;18.60;99.90;;;;;;5024368;28;20211;-69
2021/09/14 04:09:18;;;;;;;8.20;7.33;;;18.60;99.90;;;;;;5023664;28;20961;-63
2021/09/14 04:11:44;;;;;;;7.80;6.97;;;18.50;99.90;;;;;;5025866;28;20468;-67
2021/09/14 04:14:09;;;;;;;8.17;7.03;;;18.40;99.90;;;;;;5026548;28;20199;-63
2021/09/14 04:16:35;;;;;;;7.80;7.10;;;18.70;99.90;;;;;;5023081;28;20240;-68
2021/09/14 04:19:01;;;;;;;8.63;6.83;;;18.70;99.90;;;;;;5021398;28;20247;-68
2021/09/14 04:21:26;;;;;;;8.30;7.50;;;18.80;99.90;;;;;;5009047;28;20278;-68
2021/09/14 04:23:52;;;;;;;8.30;7.17;;;19.10;99.90;;;;;;5025808;28;20282;-68
2021/09/14 04:26:18;;;;;;;7.40;6.70;;;18.90;99.90;;;;;;5024373;28;20647;-69
2021/09/14 04:28:43;;;;;;;9.80;8.30;;;18.90;99.90;;;;;;5021259;28;20208;-64
2021/09/14 04:31:09;;;;;;;6.93;6.23;;;18.60;99.90;;;;;;5029638;28;20195;-68
2021/09/14 04:33:35;;;;;;;9.90;6.73;;;18.50;99.90;;;;;;5021294;28;20206;-69
2021/09/14 04:36:00;;;;;;;8.10;6.80;;;18.30;99.90;;;;;;5023726;28;20443;-69
2021/09/14 04:38:26;;;;;;;6.37;5.83;;;18.30;99.90;;;;;;5022385;28;20284;-67
2021/09/14 04:40:52;;;;;;;7.43;6.73;;;18.20;99.90;;;;;;5022911;28;20219;-62
2021/09/14 04:43:18;;;;;;;8.33;6.97;;;18.20;99.90;;;;;;5023883;28;20290;-61
2021/09/14 04:45:44;;;;;;;8.00;6.60;;;18.00;99.90;;;;;;5022363;28;20254;-66
2021/09/14 04:48:10;;;;;;;9.80;7.40;;;18.20;99.90;;;;;;5022321;28;20185;-68
2021/09/14 04:50:37;;;;;;;9.17;7.10;;;18.10;99.90;;;;;;5022019;28;20655;-61
2021/09/14 04:53:02;;;;;;;8.30;7.50;;;18.10;99.90;;;;;;5020757;28;20468;-64
2021/09/14 04:55:28;;;;;;;9.60;7.87;;;17.90;99.90;;;;;;5025853;28;20470;-69
2021/09/14 04:57:54;;;;;;;10.33;7.80;;;17.90;99.90;;;;;;5023339;28;20805;-65
2021/09/14 05:00:19;;;;;;;8.70;7.47;;;17.80;99.90;;;;;;5019666;28;20189;-65
2021/09/14 05:02:45;;;;;;;8.20;7.40;;;17.90;99.90;;;;;;5024348;28;20577;-62
2021/09/14 05:05:11;;;;;;;8.63;7.73;;;17.80;99.90;;;;;;5023139;28;20270;-67
2021/09/14 05:07:37;;;;;;;7.97;7.13;;;17.80;99.90;;;;;;5023566;28;20215;-68
2021/09/14 05:10:03;;;;;;;9.93;8.10;;;18.10;99.90;;;;;;5024467;28;20439;-69
2021/09/14 05:12:29;;;;;;;9.93;7.50;;;18.00;99.90;;;;;;5005047;28;20238;-62
2021/09/14 05:14:54;;;;;;;8.57;7.77;;;17.70;99.90;;;;;;5021383;28;20443;-68
2021/09/14 05:17:20;;;;;;;9.57;8.00;;;17.70;99.90;;;;;;5025721;28;21552;-62
2021/09/14 05:19:47;;;;;;;10.83;7.50;;;18.00;99.90;;;;;;5021210;28;20232;-62
2021/09/14 05:22:13;;;;;;;9.03;8.13;;;18.00;99.90;;;;;;5005798;28;20205;-62
2021/09/14 05:24:39;;;;;;;12.57;9.30;;;17.90;99.90;;;;;;5025615;28;20489;-62
2021/09/14 05:27:05;;;;;;;10.63;8.87;;;17.80;99.90;;;;;;5026621;28;20470;-62
2021/09/14 05:29:30;;;;;;;8.83;8.03;;;17.80;99.90;;;;;;5030183;28;20249;-62
2021/09/14 05:31:57;;;;;;;9.90;8.10;;;18.10;99.90;;;;;;5025844;28;20266;-63
2021/09/14 05:34:23;;;;;;;10.93;8.60;;;18.10;99.90;;;;;;5025397;28;20288;-61
2021/09/14 05:36:50;;;;;;;9.70;8.80;;;17.80;99.90;;;;;;5025556;28;20478;-63
2021/09/14 05:39:16;;;;;;;9.50;8.60;;;17.60;99.90;;;;;;5024965;28;20447;-62
2021/09/14 05:41:41;;;;;;;9.13;8.23;;;17.70;99.90;;;;;;5029422;28;20470;-62
2021/09/14 05:44:07;;;;;;;9.70;8.70;;;17.80;99.90;;;;;;5026581;28;20240;-63
2021/09/14 05:46:33;;;;;;;11.20;8.60;;;17.90;99.90;;;;;;5023867;28;20205;-61
2021/09/14 05:48:58;;;;;;;11.23;7.90;;;18.10;99.90;;;;;;5027198;28;20325;-62
2021/09/14 05:51:24;;;;;;;8.27;7.40;;;18.40;99.90;;;;;;5029514;28;20189;-62
2021/09/14 05:53:50;;;;;;;7.87;7.17;;;18.40;99.90;;;;;;5023738;28;20224;-62
2021/09/14 05:56:15;;;;;;;7.87;7.10;;;18.40;99.90;;;;;;5025334;28;20212;-62
2021/09/14 05:58:41;;;;;;;7.70;6.90;;;18.70;99.90;;;;;;5027347;28;20526;-62
2021/09/14 06:01:08;;;;;;;9.90;7.77;;;18.50;99.90;;;;;;5028641;28;20193;-62
2021/09/14 06:03:34;;;;;;;10.40;7.53;;;18.30;99.90;;;;;;5026482;28;20729;-63
2021/09/14 06:06:00;;;;;;;10.70;7.57;;;18.40;99.90;;;;;;5008806;28;20480;-62
2021/09/14 06:08:26;;;;;;;9.07;7.60;;;18.50;99.90;;;;;;5025501;28;20287;-62
2021/09/14 06:10:52;;;;;;;8.90;7.00;;;18.70;99.90;;;;;;5023798;28;20502;-63
2021/09/14 06:13:19;;;;;;;8.13;7.40;;;18.90;99.90;;;;;;5022310;28;20490;-62
2021/09/14 06:15:45;;;;;;;7.87;7.07;;;18.50;99.90;;;;;;5025389;28;20439;-61
2021/09/14 06:18:11;;;;;;;8.10;6.80;;;18.70;99.90;;;;;;5027102;28;20433;-62
2021/09/14 06:20:36;;;;;;;7.60;6.77;;;19.00;99.90;;;;;;5022178;28;20462;-61
2021/09/14 06:23:02;;;;;;;11.67;7.03;;;19.10;99.90;;;;;;5026891;28;20439;-62
2021/09/14 06:25:28;;;;;;;8.37;7.60;;;18.90;99.90;;;;;;5028689;28;20216;-63
2021/09/14 06:27:54;;;;;;;10.60;8.23;;;18.90;99.90;;;;;;5029634;28;20470;-62
2021/09/14 06:30:19;;;;;;;9.10;7.00;;;19.00;99.90;;;;;;5025039;28;20200;-63
2021/09/14 06:32:45;;;;;;;8.73;7.20;;;19.20;99.90;;;;;;5026581;28;20567;-62
2021/09/14 06:35:10;;;;;;;8.20;7.47;;;19.20;99.90;;;;;;5031016;28;20208;-62
2021/09/14 06:37:37;;;;;;;8.97;7.87;;;19.20;99.90;;;;;;5018387;28;20298;-61
2021/09/14 06:40:04;;;;;;;10.07;8.57;;;19.10;99.90;;;;;;5022469;28;20234;-62
2021/09/14 06:42:30;;;;;;;9.00;8.13;;;18.90;99.90;;;;;;5026781;28;20434;-63
2021/09/14 06:44:58;;;;;;;7.87;7.10;;;18.80;99.90;;;;;;5003020;28;20502;-63
2021/09/14 06:47:23;;;;;;;11.53;8.87;;;19.10;99.90;;;;;;5027361;28;20550;-63
2021/09/14 06:49:49;;;;;;;8.87;7.70;;;19.20;99.90;;;;;;5026955;28;20526;-62
2021/09/14 06:52:15;;;;;;;9.03;8.13;;;19.30;99.90;;;;;;5005030;28;20199;-65
2021/09/14 06:54:40;;;;;;;8.70;7.90;;;19.40;99.90;;;;;;5027101;28;21130;-65
2021/09/14 06:57:06;;;;;;;9.40;8.50;;;19.60;99.90;;;;;;5023082;28;20270;-64
2021/09/14 06:59:32;;;;;;;10.87;7.93;;;19.60;99.90;;;;;;5022596;28;20200;-64
2021/09/14 07:01:58;;;;;;;14.30;10.80;;;19.50;99.90;;;;;;5030993;28;20231;-64
2021/09/14 07:04:23;;;;;;;14.43;9.57;;;19.50;99.90;;;;;;5023818;28;20220;-64
2021/09/14 07:06:50;;;;;;;11.37;9.77;;;19.80;99.90;;;;;;5022381;28;21047;-64
2021/09/14 07:09:17;;;;;;;13.20;11.13;;;19.90;99.90;;;;;;5013756;28;20180;-64
2021/09/14 07:11:43;;;;;;;14.13;12.60;;;19.70;99.90;;;;;;5004368;28;20953;-64
2021/09/14 07:14:09;;;;;;;13.80;12.40;;;19.20;99.90;;;;;;5021143;28;20447;-64
2021/09/14 07:16:34;;;;;;;13.57;12.20;;;19.20;99.90;;;;;;5027988;28;20451;-64
2021/09/14 07:19:00;;;;;;;13.63;11.97;;;19.20;99.90;;;;;;5023042;28;20446;-66
2021/09/14 07:21:26;;;;;;;12.73;11.43;;;19.30;99.90;;;;;;5022941;28;20206;-65
2021/09/14 07:23:51;;;;;;;14.20;11.80;;;19.20;99.90;;;;;;5027101;28;20192;-66
2021/09/14 07:26:17;;;;;;;13.27;11.53;;;19.40;99.90;;;;;;5021336;28;20305;-65
2021/09/14 07:28:43;;;;;;;11.40;10.20;;;19.40;99.90;;;;;;5026729;28;20287;-65
2021/09/14 07:31:11;;;;;;;13.80;11.27;;;19.40;99.90;;;;;;5020812;28;20196;-65
2021/09/14 07:33:37;;;;;;;17.40;12.50;;;19.30;99.90;;;;;;5018646;28;20238;-65
2021/09/14 07:36:02;;;;;;;12.50;11.20;;;19.30;99.90;;;;;;5021571;28;20471;-67
2021/09/14 07:38:28;;;;;;;14.17;12.70;;;19.30;99.90;;;;;;5023912;28;20474;-65
2021/09/14 07:40:54;;;;;;;11.80;10.70;;;19.30;99.90;;;;;;5027634;28;20204;-64
2021/09/14 07:43:19;;;;;;;14.10;12.43;;;19.40;99.90;;;;;;5024721;28;20192;-64
2021/09/14 07:45:45;;;;;;;15.93;13.30;;;19.50;99.90;;;;;;5021141;28;20224;-65
2021/09/14 07:48:11;;;;;;;16.33;14.20;;;19.60;99.90;;;;;;5025030;28;20217;-64
2021/09/14 07:50:36;;;;;;;17.00;14.70;;;19.50;99.90;;;;;;5026753;28;20554;-68
2021/09/14 07:53:03;;;;;;;22.50;14.30;;;19.60;99.90;;;;;;4993271;28;20771;-69
2021/09/14 07:55:28;;;;;;;16.87;13.63;;;19.60;99.90;;;;;;5027346;28;20790;-70
2021/09/14 07:57:55;;;;;;;15.90;14.30;;;19.70;99.90;;;;;;5024182;28;20455;-69
2021/09/14 08:00:20;;;;;;;14.73;13.17;;;19.70;99.90;;;;;;5023892;28;20192;-69
2021/09/14 08:02:56;;;;;;;15.93;14.20;;;19.90;99.90;;;;;;5020808;28;20435;-65
2021/09/14 08:05:23;;;;;;;15.47;13.33;;;19.90;99.90;;;;;;5023773;28;20290;-64
2021/09/14 08:07:50;;;;;;;18.30;14.53;;;20.00;99.90;;;;;;5010201;28;20903;-64
2021/09/14 08:10:16;;;;;;;14.80;13.30;;;20.00;99.90;;;;;;5019520;28;20435;-64
2021/09/14 08:12:41;;;;;;;19.50;14.57;;;20.10;99.90;;;;;;5023429;28;20204;-62
2021/09/14 08:15:08;;;;;;;17.00;13.37;;;20.00;99.90;;;;;;5023592;28;20214;-64
2021/09/14 08:17:33;;;;;;;14.40;12.90;;;20.10;99.90;;;;;;5022755;28;20220;-63
2021/09/14 08:20:00;;;;;;;17.23;12.87;;;20.20;99.90;;;;;;5026609;28;20508;-64
2021/09/14 08:22:26;;;;;;;13.77;12.37;;;20.20;99.90;;;;;;5025518;28;20235;-64
2021/09/14 08:24:52;;;;;;;14.77;11.17;;;20.20;99.90;;;;;;5025677;28;20506;-69
2021/09/14 08:27:18;;;;;;;18.27;13.80;;;20.30;99.90;;;;;;5022709;28;20243;-68
2021/09/14 08:29:43;;;;;;;12.87;11.20;;;20.30;99.90;;;;;;5023113;28;20262;-68
2021/09/14 08:32:09;;;;;;;11.67;10.50;;;20.20;99.90;;;;;;5025263;28;20439;-68
2021/09/14 08:34:35;;;;;;;13.30;12.03;;;20.30;99.90;;;;;;5006178;28;20204;-64
2021/09/14 08:37:00;;;;;;;11.50;10.40;;;20.50;99.90;;;;;;5021669;28;20220;-63
2021/09/14 08:39:26;;;;;;;14.53;10.77;;;20.50;99.90;;;;;;5021899;28;20940;-63
2021/09/14 08:41:52;;;;;;;12.77;10.30;;;20.40;99.90;;;;;;5022253;28;20192;-65
2021/09/14 08:44:19;;;;;;;13.93;11.60;;;20.60;99.90;;;;;;5021397;28;20703;-65
2021/09/14 08:46:44;;;;;;;11.20;9.90;;;20.80;99.90;;;;;;5024030;28;20459;-63
2021/09/14 08:49:12;;;;;;;11.57;10.37;;;21.00;99.90;;;;;;5025747;28;20493;-62
2021/09/14 08:51:38;;;;;;;10.40;9.40;;;20.90;99.90;;;;;;5004379;28;20194;-62
2021/09/14 08:54:04;;;;;;;11.10;10.00;;;21.00;99.90;;;;;;5023323;28;20480;-62
2021/09/14 08:56:31;;;;;;;12.30;11.10;;;21.10;99.90;;;;;;5022537;28;20479;-62
2021/09/14 08:58:57;;;;;;;11.77;10.13;;;21.10;99.90;;;;;;5025975;28;20200;-62
2021/09/14 09:01:23;;;;;;;11.27;10.00;;;20.90;99.90;;;;;;5029331;28;20419;-62
2021/09/14 09:03:59;;;;;;;14.57;10.30;;;21.00;99.90;;;;;;5029680;28;20438;-62
2021/09/14 09:06:36;;;;;;;12.47;10.03;;;21.10;99.90;;;;;;5025349;28;20213;-61
2021/09/14 09:09:18;;;;;;;11.67;10.57;;;21.10;99.90;;;;;;5010320;28;20436;-61
2021/09/14 09:12:02;;;;;;;17.53;10.60;;;21.20;99.90;;;;;;5024780;28;20466;-61
2021/09/14 09:14:39;;;;;;;15.13;12.57;;;21.40;99.90;;;;;;5025442;28;20512;-61
2021/09/14 09:17:11;;;;;;;13.27;11.30;;;21.50;99.90;;;;;;5025735;28;20553;-62
2021/09/14 09:19:38;;;;;;;12.00;10.73;;;21.50;99.90;;;;;;5026780;28;20824;-61
2021/09/14 09:22:04;;;;;;;11.60;9.80;;;21.60;99.90;;;;;;5027751;28;20439;-68
2021/09/14 09:24:46;;;;;;;12.13;10.33;;;21.60;99.90;;;;;;5030337;28;20887;-63
2021/09/14 09:27:13;;;;;;;9.93;9.03;;;21.70;99.90;;;;;;5021881;28;20454;-63
2021/09/14 09:29:39;;;;;;;13.27;10.37;;;21.80;99.90;;;;;;5025503;28;20513;-64
2021/09/14 09:32:05;;;;;;;16.27;9.70;;;21.90;99.90;;;;;;5012086;28;20434;-64
2021/09/14 09:34:31;;;;;;;11.43;9.60;;;21.90;99.90;;;;;;5007300;28;20446;-63
2021/09/14 09:37:05;;;;;;;15.57;12.40;;;22.00;99.90;;;;;;5028822;28;20845;-63
2021/09/14 09:39:45;;;;;;;10.77;9.13;;;22.00;99.90;;;;;;5028700;28;20180;-64
2021/09/14 09:42:12;;;;;;;11.53;10.33;;;22.10;99.90;;;;;;5028134;28;20538;-67
2021/09/14 09:44:38;;;;;;;13.40;11.30;;;22.20;99.90;;;;;;5027289;28;20463;-64
2021/09/14 09:47:04;;;;;;;10.67;9.60;;;22.00;99.90;;;;;;5024481;28;20451;-63
2021/09/14 09:49:32;;;;;;;9.03;7.73;;;22.00;99.90;;;;;;5025535;28;20428;-64
2021/09/14 09:51:58;;;;;;;12.00;8.80;;;22.10;99.90;;;;;;5027907;28;20455;-65
2021/09/14 09:54:25;;;;;;;11.27;9.57;;;22.30;99.90;;;;;;5021693;28;20964;-64
2021/09/14 09:56:51;;;;;;;10.53;7.90;;;22.30;99.90;;;;;;5023412;28;20506;-64
2021/09/14 09:59:17;;;;;;;12.33;8.90;;;22.40;99.90;;;;;;5029474;28;20443;-64
2021/09/14 10:02:18;;;;;;;11.90;9.37;;;22.40;99.90;;;;;;5021270;28;20443;-64
2021/09/14 10:05:00;;;;;;;15.93;10.37;;;22.50;99.90;;;;;;5020307;28;20469;-64
2021/09/14 10:07:33;;;;;;;10.50;9.50;;;22.60;99.90;;;;;;5025665;28;20454;-68
2021/09/14 10:10:00;;;;;;;10.60;9.50;;;22.70;99.90;;;;;;5006642;28;20920;-67
2021/09/14 10:12:31;;;;;;;7.93;7.07;;;22.80;99.90;;;;;;5023430;28;20441;-67
2021/09/14 10:15:08;;;;;;;10.70;8.20;;;22.90;99.90;;;;;;5025642;28;20442;-68
2021/09/14 10:17:54;;;;;;;9.37;8.37;;;23.10;99.90;;;;;;5020189;28;20450;-68
2021/09/14 10:20:23;;;;;;;8.97;7.97;;;23.20;99.90;;;;;;5020298;28;20446;-70
2021/09/14 10:23:04;;;;;;;7.83;7.13;;;23.30;99.90;;;;;;5009688;28;20446;-69
2021/09/14 10:25:30;;;;;;;7.73;7.13;;;23.30;99.90;;;;;;5025734;28;20554;-69
2021/09/14 10:28:09;;;;;;;14.10;6.93;;;23.30;99.90;;;;;;5022828;28;20788;-71
2021/09/14 10:30:35;;;;;;;9.20;8.30;;;23.40;99.90;;;;;;5025519;28;20191;-70
2021/09/14 10:33:01;;;;;;;8.00;7.30;;;23.50;99.90;;;;;;5024645;28;20440;-72
2021/09/14 10:35:34;;;;;;;8.00;6.90;;;23.50;99.90;;;;;;5007235;28;20461;-69
2021/09/14 10:38:20;;;;;;;8.60;7.80;;;23.60;99.90;;;;;;5025409;28;20241;-68
2021/09/14 10:40:51;;;;;;;10.50;7.20;;;23.70;99.90;;;;;;5023523;28;20505;-69
2021/09/14 10:43:28;;;;;;;7.30;6.60;;;23.70;99.90;;;;;;5024315;28;20442;-69
2021/09/14 10:45:58;;;;;;;10.17;7.80;;;23.90;99.90;;;;;;5023292;28;20489;-68
2021/09/14 10:48:32;;;;;;;8.17;7.33;;;23.90;99.90;;;;;;5023374;28;20434;-69
2021/09/14 10:51:13;;;;;;;11.47;8.40;;;24.10;99.90;;;;;;5023218;28;20521;-69
2021/09/14 10:53:39;;;;;;;7.60;6.90;;;24.10;99.90;;;;;;4996576;28;20881;-69
2021/09/14 10:56:06;;;;;;;8.53;7.17;;;24.20;99.90;;;;;;5022115;28;21663;-68
2021/09/14 10:58:42;;;;;;;14.10;7.57;;;24.40;99.90;;;;;;5026955;28;20521;-69
2021/09/14 11:01:08;;;;;;;7.73;7.00;;;24.30;99.90;;;;;;5025819;28;21115;-68
2021/09/14 11:03:34;;;;;;;12.17;6.93;;;24.30;99.90;;;;;;4999285;28;20452;-68
2021/09/14 11:06:00;;;;;;;8.47;7.67;;;24.40;99.90;;;;;;5025644;28;20502;-68
2021/09/14 11:08:26;;;;;;;9.40;6.10;;;24.50;99.90;;;;;;5022254;28;20203;-68
2021/09/14 11:11:00;;;;;;;7.27;6.53;;;24.60;99.90;;;;;;5024133;28;20443;-68
2021/09/14 11:13:28;;;;;;;9.50;7.23;;;24.70;99.90;;;;;;5018402;28;20958;-69
2021/09/14 11:16:05;;;;;;;9.10;8.20;;;24.70;99.90;;;;;;5022438;28;20431;-67
2021/09/14 11:18:34;;;;;;;15.00;13.60;;;24.60;99.90;;;;;;5021260;28;20423;-68
2021/09/14 11:21:12;;;;;;;23.23;20.93;;;24.60;99.90;;;;;;5004056;28;20454;-68
2021/09/14 11:23:43;;;;;;;38.33;34.50;;;24.60;99.90;;;;;;5026025;28;20416;-68
2021/09/14 11:26:11;;;;;;;9.60;7.67;;;24.60;99.90;;;;;;5023620;28;20481;-68
2021/09/14 11:28:39;;;;;;;21.57;19.27;;;24.50;99.90;;;;;;5029150;28;20427;-68
2021/09/14 11:31:11;;;;;;;11.67;7.43;;;24.70;99.90;;;;;;5022182;28;20445;-62
2021/09/14 11:33:42;;;;;;;7.77;7.00;;;24.70;99.90;;;;;;5024638;28;20427;-62
2021/09/14 11:36:08;;;;;;;8.80;8.00;;;24.70;99.90;;;;;;4991064;28;20459;-63
2021/09/14 11:38:35;;;;;;;10.90;9.90;;;24.70;99.90;;;;;;5025143;28;20856;-63
2021/09/14 11:41:02;;;;;;;8.30;7.60;;;24.80;99.90;;;;;;5022134;28;20497;-63
2021/09/14 11:43:32;;;;;;;16.27;8.97;;;24.80;99.90;;;;;;5025889;28;20506;-62
2021/09/14 11:46:10;;;;;;;8.60;7.80;;;24.80;99.90;;;;;;5023669;28;20470;-62
2021/09/14 11:48:35;;;;;;;8.23;7.43;;;25.00;99.90;;;;;;5025286;28;20995;-64
2021/09/14 11:51:09;;;;;;;8.23;7.13;;;25.10;99.90;;;;;;5024089;28;20447;-60
2021/09/14 11:53:37;;;;;;;11.03;7.27;;;25.20;99.90;;;;;;5023273;28;20718;-60
2021/09/14 11:56:14;;;;;;;8.33;6.53;;;25.10;99.90;;;;;;5025312;28;20445;-62
2021/09/14 11:58:43;;;;;;;7.47;6.70;;;25.20;99.90;;;;;;5021794;28;20449;-62
2021/09/14 12:01:09;;;;;;;7.53;6.83;;;25.30;99.90;;;;;;5023067;28;20929;-61
2021/09/14 12:03:36;;;;;;;7.40;6.80;;;25.40;99.90;;;;;;5023719;28;20506;-62
2021/09/14 12:06:03;;;;;;;10.00;6.87;;;25.60;99.90;;;;;;5021485;28;20468;-62
2021/09/14 12:08:31;;;;;;;7.33;6.73;;;25.70;99.90;;;;;;5020129;28;20447;-60
2021/09/14 12:10:58;;;;;;;8.20;7.40;;;25.80;99.90;;;;;;5005775;28;20463;-61
2021/09/14 12:13:24;;;;;;;9.67;6.47;;;25.90;99.90;;;;;;5022143;28;20429;-62
2021/09/14 12:15:56;;;;;;;7.13;6.53;;;26.30;99.90;;;;;;5021538;28;20435;-62
2021/09/14 12:18:22;;;;;;;9.40;8.40;;;26.90;99.90;;;;;;5023086;28;20451;-62
2021/09/14 12:20:47;;;;;;;13.87;12.50;;;27.10;99.90;;;;;;5024803;28;20427;-62
2021/09/14 12:23:14;;;;;;;28.23;25.23;;;27.80;99.90;;;;;;5023604;28;20642;-62
2021/09/14 12:25:40;;;;;;;8.50;7.60;;;28.30;99.90;;;;;;5019099;28;20201;-61
2021/09/14 12:28:06;;;;;;;6.63;5.97;;;28.30;99.90;;;;;;5018537;28;20451;-61
2021/09/14 12:30:32;;;;;;;7.03;5.90;;;28.40;99.90;;;;;;5025086;28;20211;-63
2021/09/14 12:32:58;;;;;;;6.87;6.27;;;28.40;99.90;;;;;;5025491;28;20514;-62
2021/09/14 12:35:24;;;;;;;6.50;5.90;;;28.50;99.90;;;;;;5026170;28;20530;-62
2021/09/14 12:37:50;;;;;;;7.07;6.30;;;28.40;99.90;;;;;;5022854;28;20220;-62
2021/09/14 12:40:16;;;;;;;6.60;6.03;;;28.40;99.90;;;;;;5029295;28;20423;-62
2021/09/14 12:42:41;;;;;;;6.20;5.60;;;28.40;99.90;;;;;;5026303;28;20285;-62
2021/09/14 12:45:07;;;;;;;6.53;5.80;;;28.40;99.90;;;;;;5029218;28;20243;-63
2021/09/14 12:47:33;;;;;;;9.43;6.07;;;28.10;99.90;;;;;;5025299;28;20230;-62
2021/09/14 12:49:59;;;;;;;8.60;6.70;;;28.00;99.90;;;;;;5029190;28;20419;-63
2021/09/14 12:52:26;;;;;;;6.67;5.97;;;27.70;99.90;;;;;;5026587;28;20289;-62
2021/09/14 12:54:53;;;;;;;10.73;6.60;;;27.60;99.90;;;;;;5027404;28;20197;-62
2021/09/14 12:57:19;;;;;;;6.57;5.97;;;27.30;99.90;;;;;;5018898;28;20851;-62
2021/09/14 12:59:45;;;;;;;6.93;6.23;;;27.20;99.90;;;;;;5023305;28;20446;-62
2021/09/14 13:02:11;;;;;;;6.97;6.37;;;27.40;99.90;;;;;;5023906;28;20192;-62
2021/09/14 13:04:36;;;;;;;7.20;6.60;;;27.40;99.90;;;;;;5024946;28;20608;-61
2021/09/14 13:07:02;;;;;;;7.30;6.00;;;27.40;99.90;;;;;;5023250;28;20325;-62
2021/09/14 13:09:28;;;;;;;7.13;6.03;;;27.30;99.90;;;;;;5025827;28;20296;-61
2021/09/14 13:11:53;;;;;;;7.37;6.40;;;27.20;99.90;;;;;;5025869;28;20204;-61
2021/09/14 13:17:03;;;;;;;7.30;6.47;;;27.00;99.90;;;;;;5029364;28;20697;-61
2021/09/14 13:19:29;;;;;;;6.67;5.90;;;27.20;99.90;;;;;;5025776;28;20443;-61
2021/09/14 13:21:54;;;;;;;8.20;6.10;;;27.30;99.90;;;;;;5027678;28;20193;-61
2021/09/14 13:24:20;;;;;;;7.20;6.30;;;27.30;99.90;;;;;;5026635;28;20317;-61
2021/09/14 13:26:46;;;;;;;7.30;6.37;;;27.20;99.90;;;;;;5028431;28;20223;-63
2021/09/14 13:29:11;;;;;;;6.30;5.70;;;27.40;99.90;;;;;;5029425;28;20306;-61
2021/09/14 13:31:37;;;;;;;10.83;7.07;;;27.80;99.90;;;;;;5028780;28;20288;-61
2021/09/14 13:34:03;;;;;;;7.70;6.60;;;28.10;99.90;;;;;;5027825;28;20201;-62
2021/09/14 13:36:29;;;;;;;7.00;6.40;;;28.30;99.90;;;;;;5025889;28;20232;-61
2021/09/14 13:38:55;;;;;;;10.70;7.40;;;28.80;99.90;;;;;;5026435;28;20302;-61